Time;durP1;ratioP1;P1;durP2;ratioP2;P2;SDS_P1;SDS_P2;PMS_P1;PMS_P2;Temp;Humidity;BMP_temperature;BMP_pressure;BME280_temperature;BME280_humidity;BME280_pressure;Samples;Min_cycle;Max_cycle;Signal;HPM_P1;HPM_P2
2022/04/14 00:00:49;;;;;;;21.90;11.75;;;1.80;1.00;;;2.87;78.44;99871.75;5020995;28;131307;-67
2022/04/14 00:03:19;;;;;;;21.25;12.15;;;1.80;1.00;;;2.81;78.89;99866.59;5021340;28;129955;-67
2022/04/14 00:05:49;;;;;;;21.27;10.95;;;1.70;1.00;;;2.74;79.09;99863.28;5020833;28;120940;-66
2022/04/14 00:08:18;;;;;;;21.08;11.77;;;1.70;1.00;;;2.64;80.26;99866.66;5021281;28;120249;-68
2022/04/14 00:10:46;;;;;;;23.98;11.40;;;1.70;1.00;;;2.65;79.62;99862.91;5004825;28;128485;-67
2022/04/14 00:13:16;;;;;;;19.23;10.93;;;1.60;1.00;;;2.60;79.99;99866.38;5022256;28;129170;-66
2022/04/14 00:15:45;;;;;;;23.77;11.73;;;1.60;1.00;;;2.51;80.57;99867.84;5020799;28;119921;-66
2022/04/14 00:18:13;;;;;;;20.40;12.30;;;1.50;1.00;;;2.46;80.88;99865.91;5021026;28;119470;-67
2022/04/14 00:20:43;;;;;;;21.77;12.40;;;1.50;1.00;;;2.41;80.96;99871.19;5039264;27;129743;-68
2022/04/14 00:23:13;;;;;;;22.92;11.90;;;1.50;1.00;;;2.39;80.93;99865.28;5020739;28;129786;-68
2022/04/14 00:25:41;;;;;;;20.90;12.20;;;1.40;1.00;;;2.36;81.35;99868.44;5020743;28;119558;-67
2022/04/14 00:28:11;;;;;;;21.42;12.25;;;1.30;1.00;;;2.35;81.11;99864.16;5021357;28;119993;-66
2022/04/14 00:30:39;;;;;;;23.92;12.93;;;1.20;1.00;;;2.32;81.29;99864.63;5035959;27;130310;-66
2022/04/14 00:33:07;;;;;;;24.83;12.65;;;1.20;1.00;;;2.30;81.00;99866.75;5020684;28;129700;-66
2022/04/14 00:35:36;;;;;;;22.75;11.48;;;1.10;1.00;;;2.24;81.45;99867.75;5019277;28;122016;-67
2022/04/14 00:38:05;;;;;;;22.23;11.43;;;1.10;1.00;;;2.14;82.44;99866.56;5020421;27;121832;-67
2022/04/14 00:40:35;;;;;;;24.33;11.60;;;1.20;1.00;;;2.13;81.87;99870.28;5021690;28;128423;-66
2022/04/14 00:43:04;;;;;;;24.98;12.93;;;1.10;1.00;;;2.12;81.94;99876.72;5020373;28;130242;-67
2022/04/14 00:45:33;;;;;;;20.02;11.35;;;1.10;1.00;;;2.11;81.89;99864.38;5019212;28;120427;-67
2022/04/14 00:48:01;;;;;;;21.92;11.93;;;1.00;1.00;;;2.11;81.58;99859.00;5022552;28;119193;-66
2022/04/14 00:50:30;;;;;;;24.50;12.15;;;1.00;1.00;;;2.12;81.48;99863.31;5020187;28;129857;-66
2022/04/14 00:53:00;;;;;;;20.90;12.20;;;0.90;1.00;;;2.11;81.13;99868.91;5022788;28;128806;-65
2022/04/14 00:55:29;;;;;;;24.20;12.80;;;0.90;1.00;;;2.12;80.91;99860.66;5020376;28;119873;-65
2022/04/14 00:57:59;;;;;;;21.63;11.60;;;0.80;1.00;;;2.07;81.32;99857.91;5020324;28;119282;-67
2022/04/14 01:00:28;;;;;;;21.35;12.45;;;0.90;1.00;;;2.04;81.86;99866.44;5022026;28;129680;-66
2022/04/14 01:02:57;;;;;;;22.75;12.02;;;0.90;1.00;;;1.90;82.69;99870.47;5021718;28;129438;-65
2022/04/14 01:05:26;;;;;;;21.05;10.95;;;0.90;1.00;;;1.90;82.69;99873.16;5020309;28;119534;-65
2022/04/14 01:07:57;;;;;;;23.27;11.45;;;1.00;1.00;;;1.97;82.25;99871.13;5020227;28;119663;-66
2022/04/14 01:10:27;;;;;;;20.33;11.43;;;1.00;1.00;;;1.90;81.91;99878.50;5019873;28;131336;-66
2022/04/14 01:12:56;;;;;;;29.13;14.45;;;1.00;1.00;;;1.85;82.15;99870.41;5035096;27;130080;-66
2022/04/14 01:15:26;;;;;;;27.30;11.52;;;0.90;1.00;;;1.75;82.84;99877.22;5020052;28;119599;-66
2022/04/14 01:17:54;;;;;;;25.30;12.20;;;0.90;1.00;;;1.68;83.40;99879.25;5020630;28;119703;-66
2022/04/14 01:20:23;;;;;;;20.92;11.13;;;0.90;1.00;;;1.56;84.00;99878.53;5019766;28;129867;-66
2022/04/14 01:22:57;;;;;;;23.10;12.75;;;0.90;1.00;;;1.48;84.90;99877.06;5019324;28;129396;-67
2022/04/14 01:25:28;;;;;;;27.23;12.23;;;0.90;1.00;;;1.40;85.34;99870.25;5018806;28;122855;-66
2022/04/14 01:27:58;;;;;;;18.70;11.07;;;0.80;1.00;;;1.46;84.84;99867.66;5023620;28;102752;-66
2022/04/14 01:30:27;;;;;;;21.92;11.65;;;0.80;1.00;;;1.51;84.76;99862.38;5018014;28;130134;-66
2022/04/14 01:32:55;;;;;;;20.15;10.88;;;0.70;1.00;;;1.54;84.58;99869.91;5021349;28;129365;-66
2022/04/14 01:35:24;;;;;;;19.52;11.02;;;0.60;1.00;;;1.50;84.95;99866.13;5018379;28;119484;-67
2022/04/14 01:37:53;;;;;;;22.80;11.65;;;0.60;1.00;;;1.54;84.77;99859.22;5019810;28;119686;-65
2022/04/14 01:40:21;;;;;;;18.92;10.48;;;0.50;1.00;;;1.55;84.41;99866.19;5019034;28;129942;-66
2022/04/14 01:42:51;;;;;;;20.67;11.23;;;0.50;1.00;;;1.56;83.91;99857.13;5019646;28;130151;-65
2022/04/14 01:45:20;;;;;;;17.70;10.02;;;0.40;1.00;;;1.57;83.95;99870.28;5019740;28;119956;-65
2022/04/14 01:47:48;;;;;;;19.10;10.60;;;0.40;1.00;;;1.52;83.92;99866.69;5019785;28;121324;-66
2022/04/14 01:50:18;;;;;;;23.60;10.88;;;0.40;1.00;;;1.41;85.05;99869.19;5017648;28;129959;-67
2022/04/14 01:52:47;;;;;;;21.10;11.30;;;0.40;1.00;;;1.42;84.94;99870.00;5019367;28;130008;-68
2022/04/14 01:55:16;;;;;;;19.08;9.80;;;0.40;1.00;;;1.43;84.61;99864.41;5019647;28;119343;-68
2022/04/14 01:57:46;;;;;;;20.90;11.40;;;0.30;1.00;;;1.42;84.35;99870.81;5018230;28;119694;-67
2022/04/14 02:00:17;;;;;;;19.63;10.63;;;0.30;1.00;;;1.38;84.78;99871.53;5018735;28;129953;-66
2022/04/14 02:02:46;;;;;;;21.63;11.45;;;0.30;1.00;;;1.34;85.13;99871.22;5019025;28;129533;-67
2022/04/14 02:05:15;;;;;;;22.73;10.77;;;0.20;1.00;;;1.32;85.54;99867.94;5019475;28;120326;-67
2022/04/14 02:07:43;;;;;;;18.95;11.05;;;0.20;1.00;;;1.31;85.52;99866.34;5021794;28;119511;-66
2022/04/14 02:10:13;;;;;;;22.15;11.13;;;0.20;1.00;;;1.32;85.06;99867.16;5018747;28;130225;-63
2022/04/14 02:12:45;;;;;;;21.52;10.13;;;0.20;1.00;;;1.23;86.07;99858.69;5021009;28;128901;-65
2022/04/14 02:15:15;;;;;;;21.17;11.48;;;0.20;1.00;;;1.18;86.35;99869.31;5018166;28;122060;-66
2022/04/14 02:17:43;;;;;;;21.48;10.75;;;0.20;1.00;;;1.15;85.87;99867.91;5019060;28;123016;-67
2022/04/14 02:20:13;;;;;;;21.90;11.45;;;0.10;1.00;;;1.13;85.79;99863.88;5018919;28;130834;-69
2022/04/14 02:22:43;;;;;;;19.33;11.25;;;0.00;1.00;;;1.11;85.83;99865.97;5018942;28;129371;-67
2022/04/14 02:25:12;;;;;;;21.88;11.43;;;0.00;1.00;;;1.11;85.43;99871.31;5019394;28;119819;-67
2022/04/14 02:27:40;;;;;;;23.95;11.38;;;-0.10;1.00;;;1.04;85.59;99872.28;5020533;28;119114;-67
2022/04/14 02:30:10;;;;;;;17.48;10.63;;;-0.10;1.00;;;0.89;88.27;99869.34;5018934;28;129763;-68
2022/04/14 02:32:41;;;;;;;19.00;11.48;;;0.00;1.00;;;0.89;88.13;99869.34;5019428;28;129888;-67
2022/04/14 02:35:10;;;;;;;21.55;10.73;;;0.00;1.00;;;0.84;88.63;99872.72;5019302;28;119575;-66
2022/04/14 02:37:39;;;;;;;21.05;10.02;;;0.00;1.00;;;0.83;88.60;99870.28;5020752;28;119378;-66
2022/04/14 02:40:09;;;;;;;18.08;10.25;;;-0.10;1.00;;;0.82;88.47;99874.00;5017598;28;130269;-66
2022/04/14 02:42:37;;;;;;;17.17;9.98;;;-0.20;1.00;;;0.80;88.80;99881.44;5018738;28;130663;-66
2022/04/14 02:45:08;;;;;;;19.02;10.43;;;-0.20;1.00;;;0.78;88.61;99884.34;5019164;28;119686;-67
2022/04/14 02:47:37;;;;;;;20.88;10.23;;;-0.20;1.00;;;0.77;88.92;99882.72;5018516;28;120131;-66
2022/04/14 02:50:08;;;;;;;21.73;10.90;;;-0.20;1.00;;;0.80;88.39;99876.91;5018403;28;129845;-65
2022/04/14 02:52:37;;;;;;;25.50;13.73;;;-0.30;1.00;;;0.79;88.57;99890.50;5018680;28;130446;-66
2022/04/14 02:55:07;;;;;;;18.55;10.38;;;-0.30;1.00;;;0.73;89.16;99886.09;5018961;28;120019;-65
2022/04/14 02:57:36;;;;;;;31.88;14.32;;;-0.20;1.00;;;0.73;88.90;99886.91;5019097;28;119505;-67
2022/04/14 03:00:09;;;;;;;23.38;12.63;;;-0.40;1.00;;;0.75;88.40;99894.69;5020460;28;129090;-65
2022/04/14 03:02:37;;;;;;;23.20;12.00;;;-0.40;1.00;;;0.76;88.08;99890.97;5020082;27;130992;-67
2022/04/14 03:05:09;;;;;;;19.50;10.73;;;-0.40;1.00;;;0.68;89.00;99892.97;5020633;28;122557;-67
2022/04/14 03:07:38;;;;;;;20.27;10.77;;;-0.40;1.00;;;0.69;89.12;99896.47;5022191;28;122360;-67
2022/04/14 03:10:08;;;;;;;23.35;11.77;;;-0.40;1.00;;;0.66;89.08;99896.94;5021713;28;130207;-67
2022/04/14 03:12:44;;;;;;;18.65;10.25;;;-0.40;1.00;;;0.60;89.74;99888.00;5021778;28;130100;-67
2022/04/14 03:15:13;;;;;;;19.77;10.80;;;-0.40;1.00;;;0.62;89.91;99896.56;5022152;28;119368;-66
2022/04/14 03:17:42;;;;;;;23.38;11.75;;;-0.40;1.00;;;0.69;89.85;99897.25;5022190;28;120010;-67
2022/04/14 03:20:13;;;;;;;18.50;9.57;;;-0.40;1.00;;;0.79;89.65;99899.31;5006509;28;129533;-66
2022/04/14 03:22:41;;;;;;;18.20;10.32;;;-0.40;1.00;;;0.83;89.63;99908.50;5021755;28;129485;-67
2022/04/14 03:25:12;;;;;;;25.58;11.38;;;-0.30;1.00;;;0.90;89.38;99897.66;5024049;28;118834;-66
2022/04/14 03:27:41;;;;;;;23.70;10.73;;;-0.30;1.00;;;0.95;88.95;99897.78;5024369;28;119904;-67
2022/04/14 03:30:11;;;;;;;20.92;11.60;;;-0.20;1.00;;;1.02;88.89;99892.28;5020280;28;129669;-65
2022/04/14 03:32:44;;;;;;;23.90;11.02;;;-0.10;1.00;;;1.08;89.01;99889.47;5023044;28;129210;-66
2022/04/14 03:35:17;;;;;;;21.27;11.55;;;-0.10;1.00;;;1.11;89.17;99887.34;5023686;28;119014;-65
2022/04/14 03:37:45;;;;;;;20.30;10.32;;;0.00;1.00;;;1.18;88.58;99891.50;5021484;28;119675;-66
2022/04/14 03:40:14;;;;;;;22.17;11.05;;;0.00;1.00;;;1.24;88.65;99895.09;5006253;28;129986;-66
2022/04/14 03:42:43;;;;;;;20.65;11.23;;;0.10;1.00;;;1.32;87.99;99900.03;5021238;28;129974;-67
2022/04/14 03:45:11;;;;;;;20.15;10.55;;;0.10;1.00;;;1.43;87.90;99899.19;5023675;28;119551;-66
2022/04/14 03:47:40;;;;;;;20.55;10.55;;;0.10;1.00;;;1.58;87.03;99879.91;5022058;28;120134;-69
2022/04/14 03:50:09;;;;;;;21.48;10.73;;;0.20;1.00;;;1.71;86.73;99885.97;5020981;28;130431;-69
2022/04/14 03:52:39;;;;;;;20.70;10.35;;;0.30;1.00;;;1.82;86.29;99886.94;5021097;28;129472;-69
2022/04/14 03:55:09;;;;;;;17.75;10.50;;;0.30;1.00;;;1.91;85.81;99880.13;5020231;28;122824;-68
2022/04/14 03:57:38;;;;;;;19.85;10.15;;;0.40;1.00;;;2.00;85.53;99884.03;5021514;28;122003;-68
2022/04/14 04:00:08;;;;;;;24.23;11.27;;;0.50;1.00;;;1.98;85.88;99880.78;5019362;28;129943;-69
2022/04/14 04:02:37;;;;;;;22.13;10.65;;;0.60;1.00;;;1.97;86.28;99884.50;5020989;28;129644;-71
2022/04/14 04:05:07;;;;;;;18.17;9.68;;;0.70;1.00;;;2.13;85.32;99889.03;5021074;28;119942;-68
2022/04/14 04:07:36;;;;;;;20.10;10.50;;;0.80;1.00;;;2.22;84.72;99891.31;5023191;28;118974;-70
2022/04/14 04:10:07;;;;;;;20.67;10.52;;;0.90;1.00;;;2.09;84.88;99881.75;5020634;28;129712;-68
2022/04/14 04:12:36;;;;;;;20.27;9.93;;;0.90;1.00;;;2.26;84.79;99887.06;5017725;27;129828;-69
2022/04/14 04:15:06;;;;;;;18.35;10.38;;;0.90;1.00;;;2.28;84.54;99884.97;5019723;27;119521;-68
2022/04/14 04:17:35;;;;;;;23.02;10.48;;;1.00;1.00;;;2.39;84.61;99892.06;5022608;28;119296;-68
2022/04/14 04:20:03;;;;;;;18.63;9.82;;;1.10;1.00;;;2.57;83.81;99893.66;5019210;28;130552;-68
2022/04/14 04:22:33;;;;;;;23.95;10.82;;;1.20;1.00;;;2.67;83.65;99899.13;5019828;28;130458;-69
2022/04/14 04:25:03;;;;;;;22.05;11.52;;;1.30;1.00;;;2.66;83.34;99896.69;5020981;28;120513;-68
2022/04/14 04:27:33;;;;;;;20.85;11.43;;;1.40;1.00;;;2.68;83.44;99897.25;5022938;28;119255;-69
2022/04/14 04:30:01;;;;;;;20.40;10.43;;;1.40;1.00;;;2.93;82.61;99901.28;5036160;27;130102;-69
2022/04/14 04:32:31;;;;;;;18.85;9.80;;;1.60;1.00;;;3.07;82.23;99894.50;5038265;27;129277;-69
2022/04/14 04:35:00;;;;;;;18.83;11.07;;;1.70;1.00;;;3.17;82.05;99896.47;5020971;28;119729;-68
2022/04/14 04:37:28;;;;;;;23.50;12.13;;;1.80;1.00;;;3.44;81.00;99901.81;5022892;28;118743;-68
2022/04/14 04:39:58;;;;;;;24.08;12.80;;;2.00;1.00;;;3.70;80.61;99899.38;5020182;28;129818;-70
2022/04/14 04:42:27;;;;;;;21.15;11.27;;;2.20;1.00;;;4.14;79.56;99899.16;5020352;28;129899;-69
2022/04/14 04:44:56;;;;;;;19.10;11.63;;;2.40;1.00;;;4.42;79.02;99910.59;5019390;28;122828;-70
2022/04/14 04:47:25;;;;;;;20.73;11.00;;;2.60;1.00;;;4.55;78.20;99912.84;5018979;28;121920;-68
2022/04/14 04:49:54;;;;;;;21.77;10.55;;;2.70;1.00;;;4.64;78.28;99919.34;5021965;28;130078;-70
2022/04/14 04:52:23;;;;;;;20.70;11.13;;;2.80;1.00;;;4.70;77.95;99913.97;5020556;28;129908;-69
2022/04/14 04:54:51;;;;;;;18.60;9.82;;;2.90;1.00;;;4.88;77.99;99915.38;5020769;28;119825;-70
2022/04/14 04:57:20;;;;;;;17.35;10.18;;;3.00;1.00;;;5.07;77.58;99919.22;5019624;28;119700;-71
2022/04/14 04:59:48;;;;;;;16.60;9.23;;;3.20;1.00;;;5.25;76.44;99922.50;5019696;28;130389;-72
2022/04/14 05:02:18;;;;;;;19.73;10.35;;;3.30;1.00;;;5.43;76.35;99919.31;5020564;28;129527;-71
2022/04/14 05:04:47;;;;;;;21.00;9.95;;;3.50;1.00;;;5.60;75.81;99924.44;5022303;28;118225;-71
2022/04/14 05:07:15;;;;;;;16.83;9.52;;;3.60;1.00;;;5.72;74.56;99921.50;5020108;28;119875;-72
2022/04/14 05:09:44;;;;;;;19.30;9.15;;;3.70;1.00;;;5.85;74.07;99920.16;5019039;28;130423;-73
2022/04/14 05:12:12;;;;;;;17.13;9.55;;;3.80;1.00;;;5.96;73.59;99913.69;5020195;28;129455;-73
2022/04/14 05:14:41;;;;;;;17.38;10.13;;;3.90;1.00;;;6.15;72.83;99913.16;5020444;28;120023;-72
2022/04/14 05:17:09;;;;;;;16.02;9.27;;;4.10;1.00;;;6.33;72.05;99915.28;5020216;28;119907;-72
2022/04/14 05:19:39;;;;;;;19.67;9.40;;;4.20;1.00;;;6.50;71.33;99923.06;5019607;28;130571;-72
2022/04/14 05:22:08;;;;;;;16.10;9.75;;;4.30;1.00;;;6.63;70.99;99924.38;5019806;28;129429;-71
2022/04/14 05:24:36;;;;;;;17.05;10.20;;;4.40;1.00;;;6.82;70.43;99922.69;5019766;28;120483;-71
2022/04/14 05:27:05;;;;;;;23.17;10.63;;;4.60;1.00;;;6.83;69.31;99923.50;5021917;28;119645;-69
2022/04/14 05:29:36;;;;;;;23.08;11.65;;;4.70;1.00;;;6.73;69.20;99924.34;5019633;28;129757;-72
2022/04/14 05:32:05;;;;;;;22.13;12.98;;;4.70;1.00;;;6.90;68.50;99923.19;5018317;28;129685;-70
2022/04/14 05:34:33;;;;;;;24.02;12.73;;;4.80;1.00;;;6.90;68.46;99929.38;5034416;27;122440;-71
2022/04/14 05:37:04;;;;;;;26.20;13.13;;;4.90;1.00;;;7.14;67.85;99923.34;5019633;28;122523;-73
2022/04/14 05:39:33;;;;;;;25.48;14.48;;;5.00;1.00;;;7.06;67.24;99922.03;5019593;28;129727;-71
2022/04/14 05:42:02;;;;;;;22.50;12.60;;;5.10;1.00;;;7.20;66.12;99925.75;5019781;28;131121;-71
2022/04/14 05:44:31;;;;;;;20.17;13.18;;;5.20;1.00;;;7.46;65.01;99924.78;5019836;28;119711;-73
2022/04/14 05:46:59;;;;;;;19.85;12.30;;;5.40;1.00;;;7.61;63.53;99921.97;5021642;28;119598;-71
2022/04/14 05:49:28;;;;;;;23.58;13.45;;;5.50;1.00;;;7.70;62.71;99924.91;5018897;28;130897;-71
2022/04/14 05:51:56;;;;;;;26.05;15.32;;;5.70;1.00;;;7.95;61.42;99914.94;5019860;28;129350;-71
2022/04/14 05:54:26;;;;;;;26.42;15.10;;;5.80;1.00;;;8.31;60.41;99928.16;5019806;28;119743;-72
2022/04/14 05:56:55;;;;;;;29.15;17.55;;;6.10;1.00;;;8.43;59.41;99921.28;5022194;28;119431;-71
2022/04/14 05:59:24;;;;;;;33.83;20.60;;;6.20;1.00;;;8.65;59.07;99922.69;5018328;28;130080;-71
2022/04/14 06:01:53;;;;;;;46.70;23.83;;;6.40;1.00;;;8.81;59.11;99926.00;5019394;28;129475;-71
2022/04/14 06:04:21;;;;;;;44.70;21.58;;;6.60;1.00;;;9.06;58.78;99915.97;5019491;28;120186;-70
2022/04/14 06:06:50;;;;;;;33.97;17.90;;;6.80;1.00;;;9.26;58.05;99921.09;5021385;28;118647;-71
2022/04/14 06:09:19;;;;;;;45.25;23.42;;;6.90;1.00;;;9.37;57.68;99918.25;5021343;28;129302;-70
2022/04/14 06:11:49;;;;;;;48.50;23.67;;;7.10;1.00;;;9.64;57.18;99926.50;5004338;28;128626;-70
2022/04/14 06:14:17;;;;;;;35.08;19.10;;;7.30;1.00;;;9.77;56.21;99924.13;5020984;28;118796;-69
2022/04/14 06:16:46;;;;;;;26.38;14.50;;;7.30;1.00;;;9.96;55.12;99911.34;5020021;28;119597;-68
2022/04/14 06:19:15;;;;;;;22.00;11.30;;;7.50;1.00;;;10.20;54.28;99918.53;5019001;28;130295;-68
2022/04/14 06:21:44;;;;;;;18.90;11.25;;;7.80;1.00;;;10.48;53.37;99910.47;5020908;28;128899;-69
2022/04/14 06:24:12;;;;;;;17.90;11.07;;;8.00;1.00;;;10.42;51.92;99918.72;5017939;28;122516;-73
2022/04/14 06:26:41;;;;;;;17.73;11.77;;;8.10;1.00;;;10.56;51.59;99907.06;5035627;27;121932;-72
2022/04/14 06:29:10;;;;;;;22.98;14.07;;;8.20;1.00;;;10.91;50.87;99915.59;5037915;27;131521;-71
2022/04/14 06:31:39;;;;;;;25.33;13.82;;;8.50;1.00;;;10.96;51.03;99915.47;5023212;27;129040;-72
2022/04/14 06:34:07;;;;;;;19.95;11.93;;;8.60;1.00;;;11.13;49.91;99914.84;5018753;28;119957;-71
2022/04/14 06:36:36;;;;;;;22.25;11.15;;;8.70;1.00;;;11.20;49.31;99911.72;5018469;27;119457;-72
2022/04/14 06:39:04;;;;;;;19.02;11.50;;;8.80;1.00;;;11.56;48.89;99919.06;5022276;28;129848;-70
2022/04/14 06:41:33;;;;;;;23.40;12.63;;;9.10;1.00;;;11.84;48.66;99904.25;5021402;28;130008;-71
2022/04/14 06:44:01;;;;;;;25.08;12.30;;;9.40;1.00;;;11.97;47.97;99899.09;5021785;28;119760;-72
2022/04/14 06:46:32;;;;;;;29.40;11.27;;;9.40;1.00;;;12.09;46.85;99902.03;5023004;28;119704;-71
2022/04/14 06:49:03;;;;;;;20.17;11.68;;;9.60;1.00;;;12.24;45.10;99900.81;5022993;28;129063;-70
2022/04/14 06:51:31;;;;;;;24.70;11.98;;;9.70;1.00;;;12.38;44.94;99896.06;5022301;28;129362;-70
2022/04/14 06:54:01;;;;;;;26.02;12.43;;;9.90;1.00;;;12.37;44.12;99908.09;5023822;28;119860;-71
2022/04/14 06:56:30;;;;;;;24.23;11.02;;;9.90;1.00;;;12.39;42.84;99902.34;5022563;28;119690;-71
2022/04/14 06:58:58;;;;;;;20.77;10.48;;;9.90;1.00;;;12.61;42.28;99900.66;5022194;28;130196;-71
2022/04/14 07:01:27;;;;;;;18.77;11.15;;;10.10;1.00;;;12.76;42.22;99897.47;5020615;28;129445;-72
2022/04/14 07:03:58;;;;;;;17.70;7.90;;;10.30;1.00;;;12.70;38.74;99890.56;5022161;28;120454;-71
2022/04/14 07:06:26;;;;;;;16.15;7.13;;;10.30;1.00;;;13.05;39.11;99885.22;5022650;28;119813;-72
2022/04/14 07:08:56;;;;;;;14.23;7.18;;;10.60;1.00;;;13.14;37.69;99891.47;5021956;28;129665;-72
2022/04/14 07:11:24;;;;;;;11.32;5.80;;;10.60;1.00;;;13.17;36.16;99885.41;5022257;28;129846;-70
2022/04/14 07:13:53;;;;;;;6.47;3.20;;;10.80;1.00;;;13.30;35.24;99883.63;5019790;28;122010;-71
2022/04/14 07:16:21;;;;;;;8.10;4.00;;;11.00;1.00;;;13.66;34.96;99883.34;5021321;28;123183;-71
2022/04/14 07:18:50;;;;;;;7.28;3.67;;;11.30;1.00;;;13.81;33.83;99881.22;5023409;28;129212;-71
2022/04/14 07:21:20;;;;;;;10.52;4.40;;;11.20;1.00;;;13.97;34.16;99870.59;5020069;28;129550;-72
2022/04/14 07:23:49;;;;;;;9.00;3.67;;;11.40;1.00;;;14.13;34.69;99870.88;5022081;28;120309;-70
2022/04/14 07:26:18;;;;;;;10.13;3.45;;;11.50;1.00;;;14.22;33.87;99871.63;5024740;28;119567;-72
2022/04/14 07:28:46;;;;;;;7.60;3.72;;;11.60;1.00;;;14.40;32.88;99866.91;5023578;28;128556;-71
2022/04/14 07:31:16;;;;;;;8.55;2.95;;;11.70;1.00;;;14.65;32.51;99872.63;5020382;28;129848;-72
2022/04/14 07:33:44;;;;;;;8.02;3.83;;;11.90;1.00;;;14.66;32.04;99864.09;5024079;28;118634;-71
2022/04/14 07:36:18;;;;;;;9.05;3.67;;;12.00;1.00;;;14.77;32.29;99859.03;5022022;28;119376;-70
2022/04/14 07:38:48;;;;;;;7.68;3.72;;;12.10;1.00;;;14.89;31.88;99871.97;5018871;28;129856;-72
2022/04/14 07:41:17;;;;;;;7.22;3.97;;;12.20;1.00;;;15.06;30.90;99862.88;5020397;28;129373;-70
2022/04/14 07:43:45;;;;;;;9.13;4.30;;;12.30;1.00;;;14.81;30.24;99856.47;5022799;27;120307;-71
2022/04/14 07:46:14;;;;;;;11.70;4.78;;;12.20;1.00;;;14.33;30.93;99852.97;5043877;27;119642;-71
2022/04/14 07:48:42;;;;;;;8.32;3.85;;;11.90;1.00;;;14.79;30.50;99853.22;5041244;27;130175;-71
2022/04/14 07:51:11;;;;;;;4.68;2.60;;;12.10;1.00;;;14.99;30.51;99847.00;5041166;27;129437;-72
2022/04/14 07:53:40;;;;;;;7.00;3.40;;;12.30;1.00;;;15.22;30.04;99844.75;5041984;27;119563;-70
2022/04/14 07:56:10;;;;;;;8.27;4.10;;;12.50;1.00;;;15.33;29.71;99849.78;5041064;27;120034;-71
2022/04/14 07:58:43;;;;;;;10.10;3.80;;;12.60;1.00;;;15.45;30.27;99847.91;5041353;27;130279;-71
2022/04/14 08:01:11;;;;;;;5.90;2.90;;;12.60;1.00;;;15.53;28.92;99842.69;5040065;27;130263;-72
2022/04/14 08:03:40;;;;;;;8.25;2.40;;;12.70;1.00;;;15.41;28.64;99836.06;5043708;27;121977;-71
2022/04/14 08:06:10;;;;;;;14.98;4.15;;;12.60;1.00;;;15.57;29.15;99833.50;5041676;27;122391;-72
2022/04/14 08:08:38;;;;;;;8.77;3.22;;;12.80;1.00;;;15.36;28.62;99832.72;5041212;27;130675;-74
2022/04/14 08:11:10;;;;;;;6.55;3.03;;;12.80;1.00;;;15.23;28.83;99829.94;5039793;27;129553;-72
2022/04/14 08:13:41;;;;;;;6.75;3.10;;;12.70;1.00;;;15.00;29.17;99829.47;5026248;27;119193;-71
2022/04/14 08:16:10;;;;;;;5.53;2.70;;;12.40;1.00;;;15.13;28.95;99832.25;5041628;27;120792;-71
2022/04/14 08:18:40;;;;;;;6.28;2.67;;;12.50;1.00;;;14.99;28.42;99825.16;5042455;27;131319;-71
2022/04/14 08:21:10;;;;;;;8.15;2.42;;;12.30;1.00;;;15.09;28.94;99835.66;5041602;27;129269;-71
2022/04/14 08:23:40;;;;;;;8.18;3.58;;;12.50;1.00;;;15.28;29.30;99826.19;5041354;27;120222;-71
2022/04/14 08:26:13;;;;;;;7.38;3.47;;;12.80;1.00;;;15.53;28.57;99826.28;5041531;27;119646;-72
2022/04/14 08:28:43;;;;;;;7.78;3.80;;;12.90;1.00;;;15.39;28.31;99824.63;5042873;27;132450;-71
2022/04/14 08:31:13;;;;;;;7.18;3.83;;;12.80;1.00;;;15.44;28.33;99821.72;5042625;27;128996;-71
2022/04/14 08:33:43;;;;;;;8.48;3.92;;;12.60;1.00;;;15.61;28.02;99812.53;5041270;27;119979;-71
2022/04/14 08:36:15;;;;;;;8.15;3.60;;;12.70;1.00;;;15.91;28.29;99806.13;5041066;27;119894;-73
2022/04/14 08:38:46;;;;;;;10.05;3.88;;;13.10;1.00;;;16.27;28.84;99810.03;5043009;27;130007;-72
2022/04/14 08:41:17;;;;;;;11.10;5.72;;;13.50;1.00;;;16.58;28.73;99808.63;5040811;27;129317;-72
2022/04/14 08:43:50;;;;;;;11.02;4.43;;;13.70;1.00;;;16.70;27.79;99803.16;5041156;27;119778;-72
2022/04/14 08:46:20;;;;;;;7.95;3.97;;;13.80;1.00;;;16.77;27.32;99816.28;5043339;27;119060;-71
2022/04/14 08:48:55;;;;;;;8.20;4.03;;;13.80;1.00;;;16.60;27.72;99796.19;5040784;27;130547;-71
2022/04/14 08:51:23;;;;;;;6.80;2.95;;;13.90;1.00;;;16.77;26.72;99806.13;5059578;27;129138;-72
2022/04/14 08:53:53;;;;;;;8.68;3.60;;;14.00;1.00;;;16.56;27.63;99799.97;5039398;27;121767;-72
2022/04/14 08:56:24;;;;;;;4.97;2.15;;;14.00;1.00;;;16.10;26.28;99798.16;5043178;27;121137;-72
2022/04/14 08:58:56;;;;;;;5.47;3.38;;;13.20;1.00;;;16.09;26.88;99801.25;5028139;27;130332;-72
2022/04/14 09:01:27;;;;;;;8.25;3.63;;;13.10;1.00;;;16.17;26.97;99795.66;5019415;28;129793;-72
2022/04/14 09:03:57;;;;;;;8.73;3.90;;;13.20;1.00;;;16.41;27.74;99794.06;5039094;27;119480;-71
2022/04/14 09:06:29;;;;;;;8.30;3.90;;;13.60;1.00;;;16.58;29.20;99795.75;5022440;28;118469;-71
2022/04/14 09:09:00;;;;;;;9.18;4.25;;;14.00;1.00;;;16.87;27.79;99791.16;5021846;28;129127;-71
2022/04/14 09:11:31;;;;;;;9.18;4.38;;;14.10;1.00;;;17.09;27.95;99781.59;5020132;28;129966;-71
2022/04/14 09:14:01;;;;;;;10.57;5.30;;;14.30;1.00;;;17.06;26.38;99779.56;5020365;28;119663;-71
2022/04/14 09:16:33;;;;;;;11.75;5.55;;;14.30;1.00;;;17.14;26.84;99781.38;5020229;28;119298;-71
2022/04/14 09:19:02;;;;;;;9.00;4.80;;;14.40;1.00;;;16.90;26.38;99776.75;5018887;28;131278;-70
2022/04/14 09:21:31;;;;;;;8.88;4.40;;;14.20;1.00;;;16.47;27.30;99776.25;5019513;28;129064;-72
2022/04/14 09:24:00;;;;;;;11.60;4.53;;;14.20;1.00;;;17.00;26.29;99769.97;5020243;28;119639;-71
2022/04/14 09:26:30;;;;;;;10.07;4.80;;;14.20;1.00;;;17.23;27.38;99767.50;5019361;28;120175;-71
2022/04/14 09:29:04;;;;;;;10.57;5.07;;;14.40;1.00;;;17.34;27.46;99765.03;5019534;28;130382;-71
2022/04/14 09:31:47;;;;;;;11.23;4.90;;;14.50;1.00;;;17.32;27.13;99764.59;5019703;28;129596;-70
2022/04/14 09:34:19;;;;;;;10.23;4.95;;;14.60;1.00;;;17.42;27.45;99764.06;5019835;28;120909;-72
2022/04/14 09:37:07;;;;;;;10.43;4.57;;;14.70;1.00;;;17.51;27.37;99767.47;5019930;28;119544;-72
2022/04/14 09:39:56;;;;;;;9.63;4.57;;;14.80;1.00;;;17.78;27.25;99759.53;5019620;28;130017;-72
2022/04/14 09:42:28;;;;;;;12.82;5.50;;;15.10;1.00;;;18.03;26.00;99764.84;5019563;28;129669;-71
2022/04/14 09:44:57;;;;;;;10.25;5.28;;;15.20;1.00;;;18.10;24.77;99756.81;5020445;28;120892;-72
2022/04/14 09:47:39;;;;;;;13.93;5.05;;;15.20;1.00;;;17.90;27.87;99748.50;5001940;28;121972;-72
2022/04/14 09:50:25;;;;;;;11.90;4.70;;;15.20;1.00;;;18.08;26.94;99748.13;5037856;27;130282;-72
2022/04/14 09:53:07;;;;;;;13.77;5.03;;;15.30;1.00;;;18.08;25.53;99739.91;5021565;28;128682;-71
2022/04/14 09:55:36;;;;;;;18.67;5.50;;;15.20;1.00;;;17.66;25.46;99724.72;5021810;28;118599;-71
2022/04/14 09:58:15;;;;;;;9.90;4.63;;;15.10;1.00;;;17.23;25.80;99729.91;5021564;28;118447;-71
2022/04/14 10:00:46;;;;;;;9.43;4.63;;;14.90;1.00;;;17.36;27.75;99738.09;5019712;28;130399;-71
2022/04/14 10:03:17;;;;;;;8.98;4.32;;;15.00;1.00;;;17.69;27.88;99735.00;5019527;28;129695;-71
2022/04/14 10:05:48;;;;;;;8.50;4.10;;;15.20;1.00;;;17.89;26.57;99726.91;5019623;28;119682;-72
2022/04/14 10:08:17;;;;;;;7.18;3.92;;;15.30;1.00;;;18.26;25.54;99729.31;5019834;28;119426;-71
2022/04/14 10:10:48;;;;;;;8.05;4.13;;;15.50;1.00;;;18.52;27.43;99720.47;5019915;28;129658;-72
2022/04/14 10:13:19;;;;;;;11.27;4.57;;;15.70;1.00;;;18.39;28.08;99721.78;5019427;28;130939;-72
2022/04/14 10:15:49;;;;;;;9.45;4.15;;;15.90;1.00;;;18.55;27.43;99717.00;5020671;28;119053;-71
2022/04/14 10:18:19;;;;;;;8.50;3.92;;;15.80;1.00;;;18.57;26.18;99717.44;5021616;28;118348;-72
2022/04/14 10:20:48;;;;;;;7.28;4.30;;;15.80;1.00;;;18.69;27.54;99705.50;5018737;28;130357;-71
2022/04/14 10:23:17;;;;;;;8.90;3.80;;;15.90;1.00;;;18.83;25.65;99702.25;5017858;28;129859;-72
2022/04/14 10:25:45;;;;;;;8.20;4.35;;;16.00;1.00;;;18.65;26.07;99708.19;5019318;28;119841;-72
2022/04/14 10:28:17;;;;;;;11.77;4.63;;;15.80;1.00;;;18.57;25.57;99706.44;5020002;28;120456;-73